Anchor Point, AK (99556)

9:43 AM AKDT on July 29, 2016 (GMT -0800)
Wilderness Greenhouse | | Change Station

Elev 335 ft 59.72 °N, 151.72 °W | Updated 3 minutes ago

Clear
Clear
60.8 °F
Feels Like 60.8 °F
N
1.7
Wind Variable Wind from East

Today
High -- | Low -- °F
--% Chance of Precip.
Yesterday
High -- | Low -- °F
Precip. -- in
Pressure 30.12 in
Visibility 10.0 miles
Clouds Clear
Dew Point 55 °F
Humidity 81%
Rainfall 0.00 in
Snow Depth Not available.
5:44 AM 10:41 PM
Waning Crescent, 20% visible
METAR PAHO 291653Z 22007KT 10SM CLR 16/12 A3012 RMK SLP199 T01560122 VIA AUTODIAL
Pressure 30.12 in
Visibility 10.0 miles
Clouds Clear
Dew Point 55 °F
Humidity 81%
Rainfall 0.00 in
Snow Depth Not available.
5:44 AM 10:41 PM
Waning Crescent, 20% visible
METAR PAHO 291653Z 22007KT 10SM CLR 16/12 A3012 RMK SLP199 T01560122 VIA AUTODIAL

10-Day Weather Forecast

Almanac

Astronomy

Jul. 29, 2016 Rise Set
Actual Time
Civil Twilight
Nautical Twilight
Astronomical Twilight
Moon
Length of Visible Light
Length of Day
Tomorrow will be .
, % of the Moon is Illuminated

Today's Extremes

State Highs State Lows

Community

WunderPhotos

Upload Photos

1,928,382 photos uploaded!

WunderBlog® & News

Nearby

Air Quality

  Air Quality AQ Index Pollutant
Not available.

Snow Depth

Station Depth Elevation

Earthquake Activity

City Distance Mag. Time & Date
Minimum magnitude displayed is 2.5.

Coastal Water Temperatures

Place Temperature

Stations

Nearby Weather Stations

Station Location Temp. Windchill Dew Point Humidity Wind Precip. Elev Updated Type
                   

Watches & Warnings

There are currently no watches in effect.